createdAt,value
2018-03-27T00:02:11.604Z,69.20
2018-03-27T00:04:40.650Z,66.43
2018-03-27T00:07:09.726Z,63.90
2018-03-27T00:09:38.742Z,66.60
2018-03-27T00:12:07.943Z,66.90
2018-03-27T00:14:36.996Z,76.83
2018-03-27T00:17:06.139Z,74.27
2018-03-27T00:19:35.180Z,81.32
2018-03-27T00:24:42.400Z,83.75
2018-03-27T00:27:10.714Z,78.30
2018-03-27T00:29:57.576Z,81.70
2018-03-27T00:35:27.419Z,88.05
2018-03-27T00:43:15.278Z,92.82
2018-03-27T00:48:20.567Z,79.30
2018-03-27T00:50:49.836Z,92.82
2018-03-27T00:53:18.877Z,72.90
2018-03-27T00:55:47.943Z,72.17
2018-03-27T00:58:17.006Z,66.53
2018-03-27T01:00:46.068Z,72.07
2018-03-27T01:03:15.198Z,79.20
2018-03-27T01:05:44.240Z,71.50
2018-03-27T01:08:13.295Z,67.47
2018-03-27T01:10:42.349Z,71.13
2018-03-27T01:13:11.585Z,69.67
2018-03-27T01:15:40.640Z,67.53
2018-03-27T01:18:09.714Z,80.33
2018-03-27T01:20:38.811Z,72.37
2018-03-27T01:23:07.855Z,84.40
2018-03-27T01:25:36.911Z,89.40
2018-03-27T01:28:06.148Z,89.43
2018-03-27T01:30:35.400Z,73.40
2018-03-27T01:33:04.421Z,88.12
2018-03-27T01:35:33.481Z,82.97
2018-03-27T01:38:02.543Z,90.93
2018-03-27T01:40:31.763Z,74.83
2018-03-27T01:43:00.801Z,72.83
2018-03-27T01:45:29.863Z,78.03
2018-03-27T01:47:58.899Z,80.47
2018-03-27T01:50:27.952Z,72.20
2018-03-27T01:52:56.994Z,81.78
2018-03-27T01:55:26.066Z,69.57
2018-03-27T01:57:56.062Z,81.50
2018-03-27T02:00:25.168Z,76.32
2018-03-27T02:02:57.575Z,73.60
2018-03-27T02:05:26.620Z,67.87
2018-03-27T02:10:30.977Z,75.90
2018-03-27T02:13:06.755Z,79.67
2018-03-27T02:18:23.823Z,87.73
2018-03-27T02:20:58.579Z,75.73
2018-03-27T02:23:33.007Z,90.30
2018-03-27T02:26:02.051Z,73.43
2018-03-27T02:28:31.108Z,72.70
2018-03-27T02:31:00.178Z,78.30
2018-03-27T02:33:29.235Z,72.47
2018-03-27T02:36:05.747Z,89.93
2018-03-27T02:38:34.819Z,78.40
2018-03-27T02:41:04.792Z,94.55
2018-03-27T02:43:37.747Z,87.23
2018-03-27T02:48:43.137Z,98.93
2018-03-27T02:51:12.159Z,90.30
2018-03-27T02:53:41.208Z,99.80
2018-03-27T02:56:10.354Z,93.07
2018-03-27T02:58:39.391Z,99.13
2018-03-27T03:01:08.475Z,91.17
2018-03-27T03:03:37.525Z,77.30
2018-03-27T03:06:06.714Z,95.50
2018-03-27T03:08:35.785Z,85.13
2018-03-27T03:11:04.820Z,94.30
2018-03-27T03:13:34.119Z,85.47
2018-03-27T03:16:03.185Z,94.78
2018-03-27T03:21:07.419Z,93.40
2018-03-27T03:23:36.488Z,77.63
2018-03-27T03:26:05.551Z,76.50
2018-03-27T03:28:34.695Z,76.90
2018-03-27T03:31:03.755Z,94.82
2018-03-27T03:33:32.799Z,84.77
2018-03-27T03:36:01.846Z,95.75
2018-03-27T03:38:31.037Z,87.43
2018-03-27T03:41:00.106Z,91.00
2018-03-27T03:43:29.138Z,82.20
2018-03-27T03:45:58.439Z,86.03
2018-03-27T03:48:27.506Z,94.30
2018-03-27T03:50:56.546Z,96.70
2018-03-27T03:53:25.596Z,72.63
2018-03-27T03:55:54.735Z,82.50
2018-03-27T03:58:23.784Z,75.67
2018-03-27T04:00:52.832Z,97.00
2018-03-27T04:03:22.041Z,85.60
2018-03-27T04:05:51.073Z,85.63
2018-03-27T04:08:20.133Z,83.27
2018-03-27T04:10:49.274Z,89.23
2018-03-27T04:13:18.328Z,85.23
2018-03-27T04:15:47.386Z,101.80
2018-03-27T04:18:16.448Z,82.43
2018-03-27T04:20:45.506Z,102.97
2018-03-27T04:23:14.575Z,83.97
2018-03-27T04:25:43.631Z,88.33
2018-03-27T04:28:12.734Z,74.57
2018-03-27T04:30:41.765Z,97.12
2018-03-27T04:33:10.844Z,91.10
2018-03-27T04:35:39.901Z,81.50
2018-03-27T04:38:09.044Z,93.60
2018-03-27T04:40:38.089Z,102.80
2018-03-27T04:43:07.367Z,103.10
2018-03-27T04:45:36.531Z,92.60
2018-03-27T04:48:05.810Z,104.03
2018-03-27T04:50:34.856Z,89.63
2018-03-27T04:53:03.912Z,107.53
2018-03-27T04:55:33.995Z,97.10
2018-03-27T05:00:40.466Z,108.10
2018-03-27T05:03:09.817Z,101.27
2018-03-27T05:05:38.885Z,110.03
2018-03-27T05:08:07.947Z,116.87
2018-03-27T05:10:37.115Z,109.27
2018-03-27T05:13:06.205Z,96.23
2018-03-27T05:15:35.265Z,98.73
2018-03-27T05:18:04.384Z,112.70
2018-03-27T05:20:33.518Z,122.55
2018-03-27T05:23:02.574Z,108.57
2018-03-27T05:25:31.616Z,96.43
2018-03-27T05:28:02.751Z,104.63
2018-03-27T05:30:31.876Z,98.90
2018-03-27T05:33:00.909Z,127.32
2018-03-27T05:35:30.173Z,114.57
2018-03-27T05:37:59.224Z,108.73
2018-03-27T05:40:28.283Z,115.43
2018-03-27T05:42:57.361Z,114.03
2018-03-27T05:45:26.423Z,111.03
2018-03-27T05:47:55.488Z,137.35
2018-03-27T05:50:24.561Z,125.40
2018-03-27T05:52:54.341Z,129.87
2018-03-27T05:55:23.401Z,119.90
2018-03-27T05:57:53.480Z,109.27
2018-03-27T06:00:25.210Z,127.95
2018-03-27T06:02:54.426Z,117.23
2018-03-27T06:05:23.471Z,109.00
2018-03-27T06:07:54.649Z,137.60
2018-03-27T06:10:23.750Z,118.40
2018-03-27T06:12:52.813Z,136.07
2018-03-27T06:15:21.944Z,138.07
2018-03-27T06:17:51.283Z,115.10
2018-03-27T06:20:20.338Z,111.77
2018-03-27T06:22:49.568Z,130.10
2018-03-27T06:25:18.632Z,120.97
2018-03-27T06:27:48.632Z,135.07
2018-03-27T06:30:17.840Z,130.93
2018-03-27T06:32:46.915Z,145.18
2018-03-27T06:35:16.082Z,125.30
2018-03-27T06:37:45.264Z,120.57
2018-03-27T06:40:14.319Z,134.55
2018-03-27T06:42:43.379Z,123.17
2018-03-27T06:45:13.442Z,139.12
2018-03-27T06:47:44.532Z,139.50
2018-03-27T06:50:14.484Z,111.53
2018-03-27T06:55:18.795Z,123.07
2018-03-27T07:00:24.036Z,132.27
2018-03-27T07:02:53.129Z,109.97
2018-03-27T07:05:23.276Z,124.72
2018-03-27T07:07:57.724Z,112.87
2018-03-27T07:10:28.352Z,117.97
